Terminal Aerodrome Forecast
Issued by NWS

Home | Current Version | Previous Version | Text Only | Print | Product List | Glossary On
Versions: 1 2 3 4 5 6 7 8 9 10 11 12 13 14 15 16 17
000
FTUS43 KEAX 181100
TAFSTJ
TAF
KSTJ 181122Z 1812/1912 09006KT 5SM BR OVC005
      TEMPO 1812/1814 2SM BR OVC003
     FM181700 10007KT P6SM SCT025
     FM190400 12008KT P6SM BKN020=

USA.gov is the U.S. government's official web portal to all federal, state and local government web resources and services.